createdAt,value
2018-12-25T00:05:05.616Z,3.70
2018-12-25T00:11:10.421Z,3.70
2018-12-25T00:17:15.051Z,3.80
2018-12-25T00:23:19.636Z,3.80
2018-12-25T00:29:24.227Z,3.80
2018-12-25T00:35:28.767Z,3.70
2018-12-25T00:41:33.332Z,3.70
2018-12-25T00:47:37.893Z,3.70
2018-12-25T00:53:42.463Z,3.80
2018-12-25T00:59:47.065Z,3.80
2018-12-25T01:05:51.716Z,3.80
2018-12-25T01:13:02.461Z,3.80
2018-12-25T01:19:07.021Z,3.80
2018-12-25T01:25:11.676Z,3.90
2018-12-25T01:31:16.237Z,3.80
2018-12-25T01:37:20.985Z,3.90
2018-12-25T01:43:25.570Z,3.90
2018-12-25T01:49:31.883Z,3.90
2018-12-25T01:55:36.434Z,3.90
2018-12-25T02:01:41.051Z,4.00
2018-12-25T02:07:45.605Z,4.00
2018-12-25T02:13:50.314Z,3.90
2018-12-25T02:19:54.978Z,3.90
2018-12-25T02:25:59.556Z,3.80
2018-12-25T02:32:04.200Z,3.80
2018-12-25T02:38:08.834Z,3.80
2018-12-25T02:44:13.416Z,3.80
2018-12-25T02:50:19.030Z,3.80
2018-12-25T02:56:23.611Z,3.80
2018-12-25T03:02:28.161Z,3.90
2018-12-25T03:08:32.715Z,3.80
2018-12-25T03:14:37.292Z,3.80
2018-12-25T03:20:41.851Z,3.80
2018-12-25T03:26:46.409Z,3.80
2018-12-25T03:32:51.057Z,3.80
2018-12-25T03:38:55.605Z,3.90
2018-12-25T03:45:00.496Z,3.90
2018-12-25T03:51:05.111Z,3.90
2018-12-25T03:57:09.654Z,3.90
2018-12-25T04:03:14.223Z,3.90
2018-12-25T04:09:19.634Z,3.90
2018-12-25T04:15:24.191Z,3.90
2018-12-25T04:21:28.761Z,3.90
2018-12-25T04:27:33.324Z,3.90
2018-12-25T04:33:37.873Z,3.90
2018-12-25T04:39:42.457Z,3.90
2018-12-25T04:45:47.010Z,3.90
2018-12-25T04:51:51.594Z,3.90
2018-12-25T04:57:56.148Z,3.90
2018-12-25T05:04:00.783Z,4.00
2018-12-25T05:10:06.538Z,4.00
2018-12-25T05:16:11.101Z,4.00
2018-12-25T05:22:15.666Z,4.10
2018-12-25T05:28:21.713Z,4.10
2018-12-25T05:34:26.283Z,4.10
2018-12-25T05:40:30.844Z,4.10
2018-12-25T05:46:35.413Z,4.10
2018-12-25T05:52:39.988Z,4.00
2018-12-25T05:58:44.540Z,4.10
2018-12-25T06:04:50.825Z,4.20
2018-12-25T06:10:55.382Z,4.20
2018-12-25T06:16:59.946Z,4.20
2018-12-25T06:23:04.499Z,4.20
2018-12-25T06:29:09.099Z,4.20
2018-12-25T06:35:13.708Z,4.20
2018-12-25T06:41:18.278Z,4.20
2018-12-25T06:47:22.992Z,4.20
2018-12-25T06:53:27.649Z,4.20
2018-12-25T06:59:32.200Z,4.20
2018-12-25T07:05:36.772Z,4.20
2018-12-25T07:11:41.330Z,4.10
2018-12-25T07:17:45.911Z,4.10
2018-12-25T07:23:50.476Z,4.00
2018-12-25T07:29:55.033Z,4.00
2018-12-25T07:35:59.582Z,4.10
2018-12-25T07:42:04.148Z,4.10
2018-12-25T07:48:08.718Z,4.10
2018-12-25T07:54:13.307Z,4.20
2018-12-25T08:00:19.570Z,4.20
2018-12-25T08:06:24.244Z,4.30
2018-12-25T08:12:28.801Z,4.30
2018-12-25T08:18:33.372Z,4.30
2018-12-25T08:24:37.935Z,4.30
2018-12-25T08:30:42.496Z,4.40
2018-12-25T08:36:47.053Z,4.50
2018-12-25T08:42:52.323Z,4.60
2018-12-25T08:48:56.865Z,4.60
2018-12-25T08:55:01.423Z,4.70
2018-12-25T09:01:06.065Z,4.80
2018-12-25T09:07:10.616Z,4.80
2018-12-25T09:13:15.172Z,4.80
2018-12-25T09:19:19.745Z,4.70
2018-12-25T09:25:24.305Z,4.80
2018-12-25T09:31:28.877Z,4.90
2018-12-25T09:37:33.485Z,4.90
2018-12-25T09:43:38.046Z,4.90
2018-12-25T09:49:42.674Z,5.00
2018-12-25T09:55:47.222Z,5.00
2018-12-25T10:01:51.783Z,5.00
2018-12-25T10:07:56.434Z,5.10
2018-12-25T10:14:00.984Z,5.10
2018-12-25T10:20:05.963Z,5.10
2018-12-25T10:26:10.597Z,5.20
2018-12-25T10:32:15.155Z,5.20
2018-12-25T10:38:19.734Z,5.20
2018-12-25T10:44:24.279Z,5.20
2018-12-25T10:50:28.839Z,5.40
2018-12-25T10:56:33.407Z,5.40
2018-12-25T11:02:37.972Z,5.40
2018-12-25T11:08:42.514Z,5.30
2018-12-25T11:14:47.078Z,5.40
2018-12-25T11:20:52.201Z,5.40
2018-12-25T11:26:56.767Z,5.40
2018-12-25T11:33:01.320Z,5.30
2018-12-25T11:39:07.102Z,5.30
2018-12-25T11:45:11.738Z,5.30
2018-12-25T11:51:16.301Z,5.30
2018-12-25T11:57:20.858Z,5.30
2018-12-25T12:03:25.427Z,5.40
2018-12-25T12:09:30.087Z,5.50
2018-12-25T12:15:34.640Z,5.50
2018-12-25T12:21:39.206Z,5.60
2018-12-25T12:27:43.763Z,5.60
2018-12-25T12:33:48.345Z,5.60
2018-12-25T12:39:52.980Z,5.70
2018-12-25T12:45:57.610Z,5.70
2018-12-25T12:52:02.175Z,5.70
2018-12-25T12:58:06.804Z,5.70
2018-12-25T13:04:11.367Z,5.70
2018-12-25T13:10:15.918Z,5.60
2018-12-25T13:16:20.496Z,5.70
2018-12-25T13:22:25.043Z,5.60
2018-12-25T13:28:29.603Z,5.60
2018-12-25T13:34:34.171Z,5.60
2018-12-25T13:40:38.710Z,5.70
2018-12-25T13:46:51.325Z,5.70
2018-12-25T13:52:49.572Z,5.70
2018-12-25T13:58:55.012Z,5.70
2018-12-25T14:04:59.622Z,5.70
2018-12-25T14:11:04.291Z,5.70
2018-12-25T14:17:08.829Z,5.60
2018-12-25T14:23:13.402Z,5.60
2018-12-25T14:29:18.012Z,5.50
2018-12-25T14:35:22.634Z,5.50
2018-12-25T14:41:27.187Z,5.60
2018-12-25T14:47:31.745Z,5.60
2018-12-25T14:53:36.297Z,5.60
2018-12-25T14:59:40.914Z,5.60
2018-12-25T15:05:45.477Z,5.60
2018-12-25T15:11:50.047Z,5.60
2018-12-25T15:17:54.616Z,5.60
2018-12-25T15:23:59.254Z,5.60
2018-12-25T15:30:03.877Z,5.60
2018-12-25T15:36:08.522Z,5.50
2018-12-25T15:42:13.080Z,5.50
2018-12-25T15:48:17.651Z,5.50
2018-12-25T15:54:22.255Z,5.50
2018-12-25T16:00:26.874Z,5.50
2018-12-25T16:06:31.432Z,5.50
2018-12-25T16:12:35.997Z,5.50
2018-12-25T16:18:40.558Z,5.50
2018-12-25T16:24:45.126Z,5.50
2018-12-25T16:30:49.714Z,5.60
2018-12-25T16:36:54.267Z,5.60
2018-12-25T16:42:58.843Z,5.60
2018-12-25T16:49:03.473Z,5.70
2018-12-25T16:55:08.109Z,5.70
2018-12-25T17:01:12.673Z,5.70
2018-12-25T17:07:17.303Z,5.70
2018-12-25T17:13:21.853Z,5.70
2018-12-25T17:19:26.426Z,5.70
2018-12-25T17:25:31.007Z,5.70
2018-12-25T17:31:35.579Z,5.70
2018-12-25T17:37:40.210Z,5.70
2018-12-25T17:43:44.784Z,5.70
2018-12-25T17:49:49.365Z,5.70
2018-12-25T17:55:53.973Z,5.70
2018-12-25T18:01:58.529Z,5.80
2018-12-25T18:08:03.083Z,5.70
2018-12-25T18:14:07.652Z,5.80
2018-12-25T18:20:12.217Z,5.80
2018-12-25T18:26:16.782Z,5.80
2018-12-25T18:32:21.324Z,5.80
2018-12-25T18:38:25.888Z,5.70
2018-12-25T18:44:30.444Z,5.70
2018-12-25T18:50:35.008Z,5.60
2018-12-25T18:56:39.576Z,5.60
2018-12-25T19:02:44.140Z,5.70
2018-12-25T19:08:48.688Z,5.60
2018-12-25T19:14:59.246Z,5.70
2018-12-25T19:21:03.769Z,5.70
2018-12-25T19:27:08.318Z,5.70
2018-12-25T19:33:12.874Z,5.60
2018-12-25T19:39:17.509Z,5.70
2018-12-25T19:45:22.975Z,5.70
2018-12-25T19:51:27.593Z,5.60
2018-12-25T19:57:32.168Z,5.70
2018-12-25T20:03:40.425Z,5.60
2018-12-25T20:10:10.287Z,5.70
2018-12-25T20:16:52.952Z,5.60
2018-12-25T20:23:30.072Z,5.50
2018-12-25T20:30:01.645Z,5.40
2018-12-25T20:36:25.734Z,5.40
2018-12-25T20:43:13.578Z,5.30
2018-12-25T20:49:41.900Z,5.30
2018-12-25T20:56:02.951Z,5.30
2018-12-25T21:02:36.062Z,5.20
2018-12-25T21:09:34.599Z,5.20
2018-12-25T21:15:58.748Z,5.20
2018-12-25T21:22:10.409Z,5.30
2018-12-25T21:28:13.378Z,5.20
2018-12-25T21:34:18.286Z,5.20
2018-12-25T21:40:23.188Z,5.20
2018-12-25T21:46:28.091Z,5.20
2018-12-25T21:52:32.869Z,5.20
2018-12-25T21:58:37.572Z,5.20
2018-12-25T22:04:42.142Z,5.10
2018-12-25T22:10:46.703Z,5.20
2018-12-25T22:16:51.270Z,5.10
2018-12-25T22:22:55.857Z,5.10
2018-12-25T22:29:00.473Z,5.10
2018-12-25T22:35:05.161Z,5.10
2018-12-25T22:41:09.733Z,5.10
2018-12-25T22:47:14.306Z,5.10
2018-12-25T22:53:19.406Z,5.00
2018-12-25T22:59:24.021Z,5.00
2018-12-25T23:05:28.661Z,5.00
2018-12-25T23:11:33.259Z,5.00
2018-12-25T23:17:37.982Z,5.00
2018-12-25T23:23:42.551Z,4.90
2018-12-25T23:29:47.127Z,5.00
2018-12-25T23:35:53.241Z,4.90
2018-12-25T23:41:59.447Z,4.80
2018-12-25T23:48:04.156Z,4.80
2018-12-25T23:54:08.776Z,4.70
